createdAt,value
2022-10-26T00:01:23.411Z,19.36
2022-10-26T00:03:51.922Z,19.39
2022-10-26T00:06:25.029Z,19.45
2022-10-26T00:08:53.310Z,19.43
2022-10-26T00:11:21.693Z,19.43
2022-10-26T00:13:50.546Z,19.53
2022-10-26T00:16:27.845Z,19.58
2022-10-26T00:18:56.841Z,19.55
2022-10-26T00:21:28.286Z,19.57
2022-10-26T00:23:57.324Z,19.62
2022-10-26T00:26:25.655Z,19.62
2022-10-26T00:28:56.104Z,19.62
2022-10-26T00:31:25.514Z,19.58
2022-10-26T00:33:55.780Z,19.64
2022-10-26T00:36:26.200Z,19.63
2022-10-26T00:38:56.583Z,19.60
2022-10-26T00:41:29.035Z,19.55
2022-10-26T00:43:57.763Z,19.55
2022-10-26T00:46:33.855Z,19.46
2022-10-26T00:49:13.575Z,19.50
2022-10-26T00:51:53.441Z,19.37
2022-10-26T00:54:24.014Z,19.39
2022-10-26T00:56:54.882Z,19.42
2022-10-26T00:59:23.833Z,19.39
2022-10-26T01:01:52.869Z,19.44
2022-10-26T01:04:21.217Z,19.46
2022-10-26T01:06:49.975Z,19.41
2022-10-26T01:09:21.984Z,19.48
2022-10-26T01:11:50.678Z,19.48
2022-10-26T01:14:20.830Z,19.49
2022-10-26T01:17:07.918Z,19.50
2022-10-26T01:20:18.495Z,19.49
2022-10-26T01:23:14.969Z,19.48
2022-10-26T01:26:15.382Z,19.49
2022-10-26T01:29:06.856Z,19.48
2022-10-26T01:31:42.616Z,19.46
2022-10-26T01:34:20.983Z,19.43
2022-10-26T01:36:57.057Z,19.41
2022-10-26T01:39:43.178Z,19.48
2022-10-26T01:42:16.349Z,19.50
2022-10-26T01:44:56.286Z,19.50
2022-10-26T01:47:24.929Z,19.48
2022-10-26T01:49:56.624Z,19.54
2022-10-26T01:52:25.170Z,19.49
2022-10-26T01:55:24.076Z,19.57
2022-10-26T01:57:54.357Z,19.58
2022-10-26T02:00:22.666Z,19.59
2022-10-26T02:03:21.502Z,19.64
2022-10-26T02:06:06.992Z,19.59
2022-10-26T02:09:01.249Z,19.62
2022-10-26T02:11:49.461Z,19.62
2022-10-26T02:14:40.136Z,19.61
2022-10-26T02:17:18.129Z,19.57
2022-10-26T02:19:59.712Z,19.56
2022-10-26T02:22:48.901Z,19.36
2022-10-26T02:25:23.576Z,19.45
2022-10-26T02:27:58.152Z,19.50
2022-10-26T02:30:26.683Z,19.55
2022-10-26T02:32:57.691Z,19.57
2022-10-26T02:35:34.605Z,19.58
2022-10-26T02:38:08.804Z,19.58
2022-10-26T02:40:56.877Z,19.50
2022-10-26T02:43:53.315Z,19.49
2022-10-26T02:46:44.796Z,19.44
2022-10-26T02:49:13.313Z,19.42
2022-10-26T02:52:01.274Z,19.48
2022-10-26T02:54:45.990Z,19.42
2022-10-26T02:57:29.544Z,19.44
2022-10-26T02:59:59.904Z,19.37
2022-10-26T03:02:30.704Z,19.42
2022-10-26T03:05:21.472Z,19.49
2022-10-26T03:07:49.447Z,19.42
2022-10-26T03:10:17.842Z,19.43
2022-10-26T03:12:46.663Z,19.38
2022-10-26T03:15:16.009Z,19.47
2022-10-26T03:17:44.345Z,19.42
2022-10-26T03:20:12.500Z,19.50
2022-10-26T03:22:40.574Z,19.49
2022-10-26T03:27:42.759Z,19.47
2022-10-26T03:30:12.121Z,19.51
2022-10-26T03:32:39.913Z,19.49
2022-10-26T03:35:08.380Z,19.42
2022-10-26T03:37:37.434Z,19.48
2022-10-26T03:40:05.691Z,19.40
2022-10-26T03:42:37.690Z,19.36
2022-10-26T03:45:07.726Z,19.46
2022-10-26T03:47:42.828Z,19.44
2022-10-26T03:50:13.137Z,19.43
2022-10-26T03:52:42.068Z,19.44
2022-10-26T03:55:11.238Z,19.44
2022-10-26T03:57:46.189Z,19.44
2022-10-26T04:00:18.091Z,19.37
2022-10-26T04:02:54.206Z,19.37
2022-10-26T04:05:22.863Z,19.36
2022-10-26T04:08:04.715Z,19.32
2022-10-26T04:10:32.588Z,19.29
2022-10-26T04:13:01.418Z,19.28
2022-10-26T04:15:29.793Z,19.24
2022-10-26T04:18:02.288Z,19.30
2022-10-26T04:20:33.353Z,19.14
2022-10-26T04:23:07.161Z,19.27
2022-10-26T04:25:35.267Z,19.17
2022-10-26T04:28:06.009Z,19.07
2022-10-26T04:30:35.171Z,19.17
2022-10-26T04:33:04.586Z,19.11
2022-10-26T04:35:33.443Z,19.18
2022-10-26T04:38:06.150Z,19.16
2022-10-26T04:40:35.210Z,19.10
2022-10-26T04:43:03.247Z,19.12
2022-10-26T04:45:31.391Z,18.99
2022-10-26T04:48:14.204Z,19.03
2022-10-26T04:50:42.311Z,19.01
2022-10-26T04:53:10.860Z,19.07
2022-10-26T04:55:38.697Z,18.99
2022-10-26T04:58:08.323Z,18.97
2022-10-26T05:00:36.781Z,19.05
2022-10-26T05:03:07.223Z,19.05
2022-10-26T05:05:37.161Z,18.98
2022-10-26T05:08:06.640Z,18.92
2022-10-26T05:10:34.550Z,18.91
2022-10-26T05:13:02.985Z,18.91
2022-10-26T05:15:31.226Z,18.90
2022-10-26T05:18:03.138Z,18.96
2022-10-26T05:20:34.222Z,18.89
2022-10-26T05:23:05.994Z,18.96
2022-10-26T05:25:37.827Z,18.96
2022-10-26T05:28:09.823Z,18.91
2022-10-26T05:30:39.993Z,18.88
2022-10-26T05:33:11.162Z,18.87
2022-10-26T05:35:39.894Z,18.82
2022-10-26T05:38:33.805Z,18.93
2022-10-26T05:41:01.792Z,18.90
2022-10-26T05:43:30.313Z,18.87
2022-10-26T05:45:59.077Z,18.98
2022-10-26T05:48:27.125Z,19.01
2022-10-26T05:50:55.074Z,19.03
2022-10-26T05:53:22.769Z,18.96
2022-10-26T05:55:51.026Z,19.04
2022-10-26T05:58:19.351Z,18.92
2022-10-26T06:01:22.432Z,19.04
2022-10-26T06:04:02.732Z,19.08
2022-10-26T06:06:48.011Z,19.02
2022-10-26T06:09:16.683Z,19.10
2022-10-26T06:14:18.173Z,19.16
2022-10-26T06:17:34.648Z,19.14
2022-10-26T06:20:22.157Z,19.16
2022-10-26T06:23:19.987Z,19.15
2022-10-26T06:26:18.670Z,19.14
2022-10-26T06:29:19.322Z,19.15
2022-10-26T06:31:48.683Z,19.11
2022-10-26T06:34:28.814Z,19.17
2022-10-26T06:37:00.812Z,19.14
2022-10-26T06:39:35.216Z,19.05
2022-10-26T06:42:04.695Z,19.15
2022-10-26T06:44:33.881Z,19.15
2022-10-26T06:47:14.682Z,19.19
2022-10-26T06:50:16.929Z,19.18
2022-10-26T06:53:00.282Z,19.18
2022-10-26T06:55:45.617Z,19.25
2022-10-26T06:58:22.860Z,19.28
2022-10-26T07:00:55.345Z,19.23
2022-10-26T07:03:23.619Z,19.25
2022-10-26T07:05:52.528Z,19.25
2022-10-26T07:08:21.062Z,19.26
2022-10-26T07:10:49.238Z,19.16
2022-10-26T07:13:18.363Z,19.24
2022-10-26T07:15:46.643Z,19.27
2022-10-26T07:18:14.994Z,19.36
2022-10-26T07:20:43.212Z,19.34
2022-10-26T07:23:11.538Z,19.34
2022-10-26T07:25:40.651Z,19.30
2022-10-26T07:28:10.872Z,19.47
2022-10-26T07:30:40.358Z,19.43
2022-10-26T07:33:14.575Z,19.50
2022-10-26T07:35:42.460Z,19.49
2022-10-26T07:38:12.422Z,19.51
2022-10-26T07:40:40.527Z,19.57
2022-10-26T07:43:08.776Z,19.59
2022-10-26T07:45:36.833Z,19.61
2022-10-26T07:48:05.044Z,19.63
2022-10-26T07:50:33.236Z,19.68
2022-10-26T07:53:01.199Z,19.67
2022-10-26T07:55:29.097Z,19.74
2022-10-26T07:57:57.728Z,19.75
2022-10-26T08:00:26.095Z,19.74
2022-10-26T08:02:54.685Z,19.72
2022-10-26T08:05:23.357Z,19.70
2022-10-26T08:07:51.733Z,19.71
2022-10-26T08:10:20.105Z,19.69
2022-10-26T08:12:48.185Z,19.76
2022-10-26T08:15:16.409Z,19.80
2022-10-26T08:17:44.583Z,19.83
2022-10-26T08:20:12.807Z,19.95
2022-10-26T08:22:40.965Z,19.96
2022-10-26T08:25:09.601Z,20.03
2022-10-26T08:27:37.644Z,20.10
2022-10-26T08:30:09.558Z,20.17
2022-10-26T08:32:37.633Z,20.21
2022-10-26T08:35:06.316Z,20.28
2022-10-26T08:37:34.348Z,20.34
2022-10-26T08:40:04.636Z,20.36
2022-10-26T08:42:40.933Z,20.38
2022-10-26T08:45:37.140Z,20.42
2022-10-26T08:48:24.491Z,20.44
2022-10-26T08:50:56.956Z,20.38
2022-10-26T08:54:01.942Z,20.38
2022-10-26T08:56:40.703Z,20.38
2022-10-26T08:59:46.700Z,20.45
2022-10-26T09:02:18.001Z,20.44
2022-10-26T09:04:46.307Z,20.47
2022-10-26T09:07:29.905Z,20.57
2022-10-26T09:10:20.113Z,20.60
2022-10-26T09:13:18.231Z,20.61
2022-10-26T09:15:55.395Z,20.69
2022-10-26T09:19:08.958Z,20.74
2022-10-26T09:22:13.871Z,20.81
2022-10-26T09:24:54.973Z,20.84
2022-10-26T09:27:42.597Z,20.90
2022-10-26T09:30:19.127Z,21.01
2022-10-26T09:32:52.864Z,21.07
2022-10-26T09:38:17.166Z,21.27
2022-10-26T09:41:06.585Z,21.32
2022-10-26T09:43:43.762Z,21.38
2022-10-26T09:46:23.069Z,21.48
2022-10-26T09:49:04.777Z,21.52
2022-10-26T09:51:36.960Z,21.51
2022-10-26T09:54:21.763Z,21.65
2022-10-26T09:56:56.954Z,21.69
2022-10-26T09:59:26.739Z,21.73
2022-10-26T10:01:56.496Z,21.77
2022-10-26T10:04:24.983Z,21.84
2022-10-26T10:19:22.111Z,22.13
2022-10-26T10:21:55.754Z,22.19
2022-10-26T10:24:27.136Z,22.36
2022-10-26T10:27:15.738Z,22.49
2022-10-26T10:29:44.557Z,22.54
2022-10-26T10:32:22.747Z,22.64
2022-10-26T10:34:53.368Z,22.73
2022-10-26T10:37:32.362Z,22.81
2022-10-26T10:40:07.070Z,22.90
2022-10-26T10:42:43.154Z,22.97
2022-10-26T10:45:30.776Z,23.07
2022-10-26T10:48:18.876Z,23.19
2022-10-26T10:51:12.739Z,23.27
2022-10-26T10:53:51.162Z,23.33
2022-10-26T10:57:03.287Z,23.44
2022-10-26T10:59:55.221Z,23.29
2022-10-26T11:03:19.193Z,23.48
2022-10-26T11:06:00.210Z,23.57
2022-10-26T11:08:42.914Z,23.67
2022-10-26T11:11:23.819Z,23.73
2022-10-26T11:14:13.889Z,23.78
2022-10-26T11:16:51.255Z,23.82
2022-10-26T11:20:04.965Z,23.86
2022-10-26T11:22:58.809Z,23.90
2022-10-26T11:25:53.078Z,23.93
2022-10-26T11:29:03.194Z,24.01
2022-10-26T11:31:44.197Z,24.03
2022-10-26T11:34:32.109Z,24.09
2022-10-26T11:37:22.756Z,24.05
2022-10-26T11:40:25.170Z,23.91
2022-10-26T11:43:14.438Z,24.08
2022-10-26T11:45:51.402Z,24.17
2022-10-26T11:48:28.717Z,24.24
2022-10-26T11:50:59.753Z,24.27
2022-10-26T11:53:44.083Z,24.31
2022-10-26T11:56:34.247Z,24.34
2022-10-26T12:01:36.397Z,24.38
2022-10-26T12:04:04.679Z,24.37
2022-10-26T12:06:35.127Z,24.39
2022-10-26T12:09:16.653Z,24.43
2022-10-26T12:12:16.843Z,24.46
2022-10-26T12:15:10.373Z,24.47
2022-10-26T12:17:56.599Z,24.50
2022-10-26T12:20:52.976Z,24.48
2022-10-26T12:23:40.580Z,24.47
2022-10-26T12:26:25.262Z,24.55
2022-10-26T12:29:02.970Z,24.58
2022-10-26T12:31:39.670Z,24.62
2022-10-26T12:34:23.616Z,24.63
2022-10-26T12:36:55.959Z,24.70
2022-10-26T12:39:40.743Z,24.76
2022-10-26T12:42:08.929Z,24.78
2022-10-26T12:44:41.563Z,24.84
2022-10-26T12:47:30.861Z,24.92
2022-10-26T12:50:08.593Z,24.98
2022-10-26T12:52:54.215Z,25.05
2022-10-26T12:55:48.254Z,25.10
2022-10-26T12:58:26.250Z,25.14
2022-10-26T13:01:00.260Z,25.20
2022-10-26T13:03:35.344Z,25.20
2022-10-26T13:06:11.054Z,25.24
2022-10-26T13:09:23.875Z,25.20
2022-10-26T13:11:57.066Z,25.11
2022-10-26T13:14:35.731Z,25.16
2022-10-26T13:17:22.866Z,25.13
2022-10-26T13:20:05.799Z,25.11
2022-10-26T13:22:44.551Z,25.06
2022-10-26T13:25:29.531Z,25.08
2022-10-26T13:28:04.374Z,25.04
2022-10-26T13:30:43.289Z,25.06
2022-10-26T13:33:22.632Z,24.99
2022-10-26T13:35:56.265Z,25.03
2022-10-26T13:38:31.101Z,25.00
2022-10-26T13:41:13.505Z,25.05
2022-10-26T13:43:44.170Z,25.00
2022-10-26T13:46:27.011Z,25.05
2022-10-26T13:49:22.651Z,25.00
2022-10-26T13:51:53.548Z,24.89
2022-10-26T13:54:44.874Z,25.00
2022-10-26T13:57:43.682Z,24.92
2022-10-26T14:00:22.452Z,24.96
2022-10-26T14:02:50.763Z,24.95
2022-10-26T14:05:20.725Z,24.92
2022-10-26T14:07:58.697Z,24.98
2022-10-26T14:10:32.995Z,24.98
2022-10-26T14:13:01.687Z,24.88
2022-10-26T14:15:32.788Z,24.98
2022-10-26T14:18:04.104Z,24.96
2022-10-26T14:20:33.419Z,24.95
2022-10-26T14:23:01.780Z,24.87
2022-10-26T14:25:42.057Z,24.95
2022-10-26T14:28:32.203Z,24.95
2022-10-26T14:31:38.588Z,24.91
2022-10-26T14:34:13.034Z,24.90
2022-10-26T14:36:56.367Z,24.92
2022-10-26T14:39:49.289Z,24.88
2022-10-26T14:42:32.324Z,24.89
2022-10-26T14:45:02.029Z,24.86
2022-10-26T14:47:33.685Z,24.90
2022-10-26T14:50:02.841Z,24.88
2022-10-26T14:52:36.038Z,24.84
2022-10-26T14:55:16.996Z,24.89
2022-10-26T14:57:48.756Z,24.85
2022-10-26T15:00:26.317Z,24.87
2022-10-26T15:02:58.430Z,24.83
2022-10-26T15:05:35.793Z,24.83
2022-10-26T15:08:33.775Z,24.79
2022-10-26T15:11:15.248Z,24.70
2022-10-26T15:13:44.557Z,24.73
2022-10-26T15:16:25.859Z,24.77
2022-10-26T15:21:47.811Z,24.68
2022-10-26T15:24:38.777Z,24.69
2022-10-26T15:27:16.311Z,24.43
2022-10-26T15:29:48.873Z,24.54
2022-10-26T15:32:21.850Z,24.56
2022-10-26T15:35:15.751Z,24.56
2022-10-26T15:37:44.556Z,24.49
2022-10-26T15:40:13.968Z,24.48
2022-10-26T15:42:45.318Z,24.50
2022-10-26T15:45:30.060Z,24.25
2022-10-26T15:48:18.457Z,24.33
2022-10-26T15:50:47.597Z,24.28
2022-10-26T15:53:23.240Z,24.28
2022-10-26T15:55:54.840Z,24.30
2022-10-26T15:58:23.724Z,24.22
2022-10-26T16:00:53.486Z,24.24
2022-10-26T16:03:28.060Z,24.24
2022-10-26T16:06:01.037Z,24.18
2022-10-26T16:08:31.923Z,24.09
2022-10-26T16:11:00.712Z,24.09
2022-10-26T16:13:31.436Z,24.04
2022-10-26T16:15:59.833Z,24.03
2022-10-26T16:18:28.858Z,23.99
2022-10-26T16:20:57.152Z,23.87
2022-10-26T16:23:25.775Z,23.90
2022-10-26T16:25:54.303Z,23.77
2022-10-26T16:28:23.946Z,23.75
2022-10-26T16:31:03.584Z,23.74
2022-10-26T16:33:33.430Z,23.57
2022-10-26T16:36:04.036Z,23.58
2022-10-26T16:38:33.899Z,23.52
2022-10-26T16:41:07.396Z,23.49
2022-10-26T16:43:38.619Z,23.41
2022-10-26T16:46:12.793Z,23.39
2022-10-26T16:48:43.374Z,23.28
2022-10-26T16:51:20.632Z,23.31
2022-10-26T16:53:55.637Z,23.24
2022-10-26T16:56:29.332Z,23.16
2022-10-26T16:58:58.667Z,23.09
2022-10-26T17:01:28.249Z,23.01
2022-10-26T17:03:57.482Z,22.91
2022-10-26T17:06:26.551Z,22.87
2022-10-26T17:08:55.345Z,22.84
2022-10-26T17:11:24.541Z,22.78
2022-10-26T17:14:00.092Z,22.81
2022-10-26T17:16:29.314Z,22.74
2022-10-26T17:18:57.991Z,22.72
2022-10-26T17:21:34.314Z,22.69
2022-10-26T17:24:03.515Z,22.62
2022-10-26T17:26:33.085Z,22.51
2022-10-26T17:29:01.457Z,22.53
2022-10-26T17:31:30.503Z,22.51
2022-10-26T17:33:59.692Z,22.47
2022-10-26T17:36:28.532Z,22.40
2022-10-26T17:38:57.814Z,22.35
2022-10-26T17:41:29.115Z,22.32
2022-10-26T17:43:58.300Z,22.26
2022-10-26T17:46:28.430Z,22.26
2022-10-26T17:48:59.905Z,22.24
2022-10-26T17:51:29.527Z,22.18
2022-10-26T17:54:02.939Z,22.04
2022-10-26T17:56:35.253Z,22.08
2022-10-26T17:59:11.027Z,22.02
2022-10-26T18:01:40.900Z,21.96
2022-10-26T18:04:09.546Z,21.98
2022-10-26T18:06:38.745Z,21.83
2022-10-26T18:09:07.174Z,21.81
2022-10-26T18:11:37.805Z,21.81
2022-10-26T18:14:05.949Z,21.64
2022-10-26T18:16:34.421Z,21.57
2022-10-26T18:19:08.221Z,21.58
2022-10-26T18:21:37.822Z,21.51
2022-10-26T18:24:08.577Z,21.48
2022-10-26T18:26:38.245Z,21.46
2022-10-26T18:29:07.468Z,21.45
2022-10-26T18:31:37.348Z,21.44
2022-10-26T18:34:07.672Z,21.44
2022-10-26T18:39:08.440Z,21.38
2022-10-26T18:41:38.501Z,21.23
2022-10-26T18:44:06.840Z,21.24
2022-10-26T18:46:40.834Z,21.31
2022-10-26T18:49:11.061Z,21.27
2022-10-26T18:51:40.297Z,21.24
2022-10-26T18:54:13.215Z,21.24
2022-10-26T18:56:42.831Z,21.26
2022-10-26T18:59:13.759Z,21.24
2022-10-26T19:01:42.613Z,21.22
2022-10-26T19:04:12.780Z,21.18
2022-10-26T19:06:47.960Z,21.17
2022-10-26T19:09:18.941Z,21.08
2022-10-26T19:11:48.403Z,20.93
2022-10-26T19:14:17.394Z,20.89
2022-10-26T19:16:48.076Z,20.95
2022-10-26T19:19:18.710Z,20.97
2022-10-26T19:21:50.750Z,20.84
2022-10-26T19:24:23.067Z,20.95
2022-10-26T19:26:54.521Z,20.92
2022-10-26T19:29:23.268Z,20.84
2022-10-26T19:31:53.654Z,20.75
2022-10-26T19:34:22.174Z,20.70
2022-10-26T19:36:50.875Z,20.67
2022-10-26T19:39:21.183Z,20.60
2022-10-26T19:41:49.968Z,20.57
2022-10-26T19:44:24.502Z,20.57
2022-10-26T19:46:53.718Z,20.54
2022-10-26T19:49:23.076Z,20.51
2022-10-26T19:51:51.619Z,20.48
2022-10-26T19:54:20.177Z,20.50
2022-10-26T19:56:49.437Z,20.51
2022-10-26T19:59:19.630Z,20.40
2022-10-26T20:01:48.216Z,20.40
2022-10-26T20:04:18.541Z,20.34
2022-10-26T20:06:47.356Z,20.21
2022-10-26T20:11:46.632Z,20.21
2022-10-26T20:14:15.663Z,20.19
2022-10-26T20:16:44.471Z,20.12
2022-10-26T20:19:12.960Z,20.13
2022-10-26T20:21:41.719Z,20.07
2022-10-26T20:24:11.557Z,19.98
2022-10-26T20:26:40.324Z,19.91
2022-10-26T20:29:10.051Z,19.89
2022-10-26T20:31:40.397Z,19.84
2022-10-26T20:34:09.821Z,19.75
2022-10-26T20:36:38.162Z,19.77
2022-10-26T20:39:09.457Z,19.71
2022-10-26T20:41:46.402Z,19.71
2022-10-26T20:44:24.892Z,19.68
2022-10-26T20:46:53.689Z,19.65
2022-10-26T20:49:22.614Z,19.67
2022-10-26T20:52:25.748Z,19.70
2022-10-26T20:55:11.412Z,19.70
2022-10-26T20:57:48.373Z,19.69
2022-10-26T21:00:18.092Z,19.68
2022-10-26T21:02:47.240Z,19.65
2022-10-26T21:05:18.368Z,19.60
2022-10-26T21:07:46.339Z,19.52
2022-10-26T21:10:16.515Z,19.46
2022-10-26T21:12:45.637Z,19.40
2022-10-26T21:15:15.529Z,19.37
2022-10-26T21:17:43.991Z,19.29
2022-10-26T21:20:12.165Z,19.31
2022-10-26T21:22:40.399Z,19.28
2022-10-26T21:25:09.079Z,19.28
2022-10-26T21:27:37.460Z,19.20
2022-10-26T21:30:06.525Z,19.29
2022-10-26T21:32:36.808Z,18.99
2022-10-26T21:35:05.573Z,19.04
2022-10-26T21:37:33.569Z,19.08
2022-10-26T21:40:01.625Z,19.07
2022-10-26T21:42:29.398Z,19.14
2022-10-26T21:44:57.288Z,19.14
2022-10-26T21:47:26.505Z,19.08
2022-10-26T21:49:54.326Z,19.08
2022-10-26T21:52:22.474Z,19.14
2022-10-26T21:54:50.531Z,19.04
2022-10-26T21:57:19.093Z,19.11
2022-10-26T21:59:46.925Z,19.00
2022-10-26T22:02:15.139Z,19.08
2022-10-26T22:04:45.187Z,19.05
2022-10-26T22:07:13.219Z,19.02
2022-10-26T22:09:55.131Z,18.97
2022-10-26T22:12:29.186Z,18.93
2022-10-26T22:14:57.368Z,18.93
2022-10-26T22:17:26.164Z,18.89
2022-10-26T22:19:54.482Z,18.90
2022-10-26T22:22:22.259Z,18.89
2022-10-26T22:24:52.652Z,18.91
2022-10-26T22:27:20.705Z,18.89
2022-10-26T22:29:49.159Z,18.80
2022-10-26T22:32:17.092Z,18.84
2022-10-26T22:34:45.345Z,18.85
2022-10-26T22:37:14.027Z,18.79
2022-10-26T22:39:42.025Z,18.67
2022-10-26T22:42:12.117Z,18.59
2022-10-26T22:44:40.408Z,18.41
2022-10-26T22:47:08.757Z,18.40
2022-10-26T22:49:36.531Z,18.34
2022-10-26T22:52:05.751Z,18.26
2022-10-26T22:54:33.508Z,18.28
2022-10-26T22:57:01.562Z,18.31
2022-10-26T22:59:29.551Z,18.30
2022-10-26T23:01:57.697Z,18.21
2022-10-26T23:04:25.725Z,18.32
2022-10-26T23:06:54.183Z,18.33
2022-10-26T23:09:22.164Z,18.27
2022-10-26T23:11:51.897Z,18.29
2022-10-26T23:14:20.007Z,18.23
2022-10-26T23:16:48.026Z,18.17
2022-10-26T23:19:16.836Z,18.04
2022-10-26T23:21:44.517Z,18.02
2022-10-26T23:24:12.347Z,18.00
2022-10-26T23:26:41.596Z,18.01
2022-10-26T23:29:09.669Z,18.00
2022-10-26T23:31:37.686Z,17.99
2022-10-26T23:34:05.867Z,17.94
2022-10-26T23:36:34.080Z,17.91
2022-10-26T23:39:01.861Z,17.91
2022-10-26T23:41:29.733Z,17.79
2022-10-26T23:43:57.647Z,17.88
2022-10-26T23:48:54.673Z,17.78
2022-10-26T23:51:22.753Z,17.81
2022-10-26T23:53:50.514Z,17.82
2022-10-26T23:56:18.282Z,17.82
2022-10-26T23:58:50.483Z,17.86
